sensor_id;sensor_type;location;lat;lon;timestamp;pressure;altitude;pressure_sealevel;temperature;humidity
69219;BME280;56232;53.384;-2.732;2023-08-06T00:00:12;101102.55;;;12.79;42.60
69219;BME280;56232;53.384;-2.732;2023-08-06T00:02:37;101101.43;;;13.29;42.51
69219;BME280;56232;53.384;-2.732;2023-08-06T00:05:04;101102.34;;;13.81;42.79
69219;BME280;56232;53.384;-2.732;2023-08-06T00:07:29;101103.89;;;13.81;42.28
69219;BME280;56232;53.384;-2.732;2023-08-06T00:09:54;101102.64;;;13.24;41.99
69219;BME280;56232;53.384;-2.732;2023-08-06T00:12:20;101104.46;;;12.72;41.45
69219;BME280;56232;53.384;-2.732;2023-08-06T00:14:50;101106.28;;;13.18;42.30
69219;BME280;56232;53.384;-2.732;2023-08-06T00:17:11;101106.77;;;12.68;42.15
69219;BME280;56232;53.384;-2.732;2023-08-06T00:19:37;101110.41;;;13.63;41.80
69219;BME280;56232;53.384;-2.732;2023-08-06T00:22:03;101114.57;;;13.03;41.98
69219;BME280;56232;53.384;-2.732;2023-08-06T00:24:28;101114.88;;;13.06;42.04
69219;BME280;56232;53.384;-2.732;2023-08-06T00:26:53;101114.70;;;13.17;41.64
69219;BME280;56232;53.384;-2.732;2023-08-06T00:29:19;101114.44;;;13.18;42.48
69219;BME280;56232;53.384;-2.732;2023-08-06T00:31:45;101114.99;;;13.68;41.83
69219;BME280;56232;53.384;-2.732;2023-08-06T00:34:10;101119.24;;;13.15;42.62
69219;BME280;56232;53.384;-2.732;2023-08-06T00:36:36;101120.25;;;13.26;43.18
69219;BME280;56232;53.384;-2.732;2023-08-06T00:39:02;101123.79;;;13.80;42.91
69219;BME280;56232;53.384;-2.732;2023-08-06T00:41:27;101123.10;;;13.35;42.66
69219;BME280;56232;53.384;-2.732;2023-08-06T00:43:53;101126.95;;;12.82;42.74
69219;BME280;56232;53.384;-2.732;2023-08-06T00:46:19;101128.51;;;13.90;42.78
69219;BME280;56232;53.384;-2.732;2023-08-06T00:48:44;101129.22;;;13.49;42.51
69219;BME280;56232;53.384;-2.732;2023-08-06T00:51:10;101130.21;;;13.18;42.48
69219;BME280;56232;53.384;-2.732;2023-08-06T00:53:36;101131.25;;;13.42;42.88
69219;BME280;56232;53.384;-2.732;2023-08-06T00:56:02;101132.32;;;14.69;43.02
69219;BME280;56232;53.384;-2.732;2023-08-06T00:58:27;101130.00;;;13.89;42.08
69219;BME280;56232;53.384;-2.732;2023-08-06T01:00:52;101130.99;;;14.12;42.79
69219;BME280;56232;53.384;-2.732;2023-08-06T01:03:18;101130.60;;;14.30;42.99
69219;BME280;56232;53.384;-2.732;2023-08-06T01:05:44;101130.54;;;14.42;42.22
69219;BME280;56232;53.384;-2.732;2023-08-06T01:08:19;101132.25;;;13.79;42.77
69219;BME280;56232;53.384;-2.732;2023-08-06T01:10:44;101132.65;;;14.39;42.60
69219;BME280;56232;53.384;-2.732;2023-08-06T01:13:09;101138.14;;;14.46;42.74
69219;BME280;56232;53.384;-2.732;2023-08-06T01:15:29;101139.93;;;14.61;43.07
69219;BME280;56232;53.384;-2.732;2023-08-06T01:17:52;101138.95;;;14.83;43.13
69219;BME280;56232;53.384;-2.732;2023-08-06T01:20:18;101140.83;;;13.94;43.62
69219;BME280;56232;53.384;-2.732;2023-08-06T01:22:44;101144.56;;;14.18;43.92
69219;BME280;56232;53.384;-2.732;2023-08-06T01:25:09;101148.10;;;14.45;43.96
69219;BME280;56232;53.384;-2.732;2023-08-06T01:27:41;101153.28;;;14.12;43.99
69219;BME280;56232;53.384;-2.732;2023-08-06T01:30:04;101155.03;;;14.94;43.88
69219;BME280;56232;53.384;-2.732;2023-08-06T01:32:26;101157.44;;;15.58;43.97
69219;BME280;56232;53.384;-2.732;2023-08-06T01:34:52;101157.89;;;15.18;43.97
69219;BME280;56232;53.384;-2.732;2023-08-06T01:37:17;101156.98;;;15.31;43.80
69219;BME280;56232;53.384;-2.732;2023-08-06T01:39:43;101156.78;;;14.79;43.93
69219;BME280;56232;53.384;-2.732;2023-08-06T01:42:09;101158.01;;;15.39;43.80
69219;BME280;56232;53.384;-2.732;2023-08-06T01:44:34;101164.00;;;15.24;43.37
69219;BME280;56232;53.384;-2.732;2023-08-06T01:47:00;101164.11;;;15.18;43.67
69219;BME280;56232;53.384;-2.732;2023-08-06T01:49:26;101161.51;;;15.15;43.65
69219;BME280;56232;53.384;-2.732;2023-08-06T01:51:51;101161.35;;;15.20;43.81
69219;BME280;56232;53.384;-2.732;2023-08-06T01:54:17;101164.76;;;15.67;43.50
69219;BME280;56232;53.384;-2.732;2023-08-06T01:56:42;101165.10;;;15.07;43.36
69219;BME280;56232;53.384;-2.732;2023-08-06T01:59:08;101165.20;;;15.07;43.57
69219;BME280;56232;53.384;-2.732;2023-08-06T02:01:34;101166.86;;;15.01;42.72
69219;BME280;56232;53.384;-2.732;2023-08-06T02:03:59;101169.07;;;15.02;43.48
69219;BME280;56232;53.384;-2.732;2023-08-06T02:06:25;101170.21;;;15.05;42.76
69219;BME280;56232;53.384;-2.732;2023-08-06T02:08:50;101169.39;;;14.43;43.20
69219;BME280;56232;53.384;-2.732;2023-08-06T02:11:16;101169.83;;;15.06;43.21
69219;BME280;56232;53.384;-2.732;2023-08-06T02:13:42;101169.10;;;15.16;43.28
69219;BME280;56232;53.384;-2.732;2023-08-06T02:16:08;101168.50;;;15.19;42.89
69219;BME280;56232;53.384;-2.732;2023-08-06T02:18:33;101169.29;;;15.15;43.07
69219;BME280;56232;53.384;-2.732;2023-08-06T02:20:59;101168.72;;;15.11;43.44
69219;BME280;56232;53.384;-2.732;2023-08-06T02:23:24;101169.49;;;15.07;42.81
69219;BME280;56232;53.384;-2.732;2023-08-06T02:25:58;101169.94;;;14.88;41.55
69219;BME280;56232;53.384;-2.732;2023-08-06T02:28:16;101168.69;;;14.64;41.75
69219;BME280;56232;53.384;-2.732;2023-08-06T02:30:49;101167.83;;;14.44;42.20
69219;BME280;56232;53.384;-2.732;2023-08-06T02:33:07;101169.16;;;14.47;42.14
69219;BME280;56232;53.384;-2.732;2023-08-06T02:35:32;101168.47;;;14.41;42.17
69219;BME280;56232;53.384;-2.732;2023-08-06T02:37:58;101170.21;;;14.49;43.18
69219;BME280;56232;53.384;-2.732;2023-08-06T02:40:24;101166.58;;;14.61;43.29
69219;BME280;56232;53.384;-2.732;2023-08-06T02:42:49;101165.17;;;14.71;42.90
69219;BME280;56232;53.384;-2.732;2023-08-06T02:45:15;101168.63;;;15.88;43.22
69219;BME280;56232;53.384;-2.732;2023-08-06T02:47:41;101166.79;;;14.82;43.70
69219;BME280;56232;53.384;-2.732;2023-08-06T02:50:07;101164.59;;;14.79;43.80
69219;BME280;56232;53.384;-2.732;2023-08-06T02:52:32;101163.11;;;14.81;43.75
69219;BME280;56232;53.384;-2.732;2023-08-06T02:54:57;101162.50;;;14.81;43.75
69219;BME280;56232;53.384;-2.732;2023-08-06T02:57:23;101159.65;;;14.71;43.53
69219;BME280;56232;53.384;-2.732;2023-08-06T02:59:49;101160.90;;;14.68;43.46
69219;BME280;56232;53.384;-2.732;2023-08-06T03:02:14;101163.99;;;14.71;43.91
69219;BME280;56232;53.384;-2.732;2023-08-06T03:04:41;101163.56;;;14.70;43.59
69219;BME280;56232;53.384;-2.732;2023-08-06T03:07:06;101163.89;;;14.68;43.64
69219;BME280;56232;53.384;-2.732;2023-08-06T03:09:31;101163.98;;;14.66;42.06
69219;BME280;56232;53.384;-2.732;2023-08-06T03:11:57;101166.80;;;14.64;43.53
69219;BME280;56232;53.384;-2.732;2023-08-06T03:14:22;101167.75;;;14.75;43.79
69219;BME280;56232;53.384;-2.732;2023-08-06T03:16:48;101170.09;;;14.78;43.61
69219;BME280;56232;53.384;-2.732;2023-08-06T03:19:14;101166.57;;;14.67;43.51
69219;BME280;56232;53.384;-2.732;2023-08-06T03:21:40;101164.90;;;14.59;43.75
69219;BME280;56232;53.384;-2.732;2023-08-06T03:24:05;101162.41;;;15.08;43.26
69219;BME280;56232;53.384;-2.732;2023-08-06T03:26:31;101164.41;;;14.57;43.61
69219;BME280;56232;53.384;-2.732;2023-08-06T03:28:56;101163.92;;;14.62;43.66
69219;BME280;56232;53.384;-2.732;2023-08-06T03:31:22;101164.35;;;14.71;44.01
69219;BME280;56232;53.384;-2.732;2023-08-06T03:33:48;101164.64;;;14.87;43.97
69219;BME280;56232;53.384;-2.732;2023-08-06T03:36:13;101164.84;;;14.98;43.98
69219;BME280;56232;53.384;-2.732;2023-08-06T03:38:44;101166.56;;;15.08;43.84
69219;BME280;56232;53.384;-2.732;2023-08-06T03:41:05;101166.51;;;15.18;43.93
69219;BME280;56232;53.384;-2.732;2023-08-06T03:43:30;101165.67;;;14.61;43.82
69219;BME280;56232;53.384;-2.732;2023-08-06T03:45:56;101167.07;;;15.23;43.65
69219;BME280;56232;53.384;-2.732;2023-08-06T03:48:22;101166.53;;;14.66;43.77
69219;BME280;56232;53.384;-2.732;2023-08-06T03:50:47;101166.48;;;15.29;43.55
69219;BME280;56232;53.384;-2.732;2023-08-06T03:53:13;101165.25;;;15.31;43.63
69219;BME280;56232;53.384;-2.732;2023-08-06T03:55:39;101165.96;;;14.67;43.57
69219;BME280;56232;53.384;-2.732;2023-08-06T03:58:05;101166.26;;;14.65;43.10
69219;BME280;56232;53.384;-2.732;2023-08-06T04:00:30;101166.14;;;14.56;43.04
69219;BME280;56232;53.384;-2.732;2023-08-06T04:02:56;101169.78;;;15.07;42.90
69219;BME280;56232;53.384;-2.732;2023-08-06T04:05:21;101169.35;;;14.87;42.92
69219;BME280;56232;53.384;-2.732;2023-08-06T04:07:47;101170.42;;;14.73;43.40
69219;BME280;56232;53.384;-2.732;2023-08-06T04:10:12;101174.44;;;14.68;42.90
69219;BME280;56232;53.384;-2.732;2023-08-06T04:12:38;101174.22;;;15.15;43.25
69219;BME280;56232;53.384;-2.732;2023-08-06T04:15:04;101175.67;;;14.63;43.40
69219;BME280;56232;53.384;-2.732;2023-08-06T04:17:29;101180.51;;;14.55;43.38
69219;BME280;56232;53.384;-2.732;2023-08-06T04:19:55;101182.62;;;14.48;43.18
69219;BME280;56232;53.384;-2.732;2023-08-06T04:22:21;101185.00;;;14.36;42.50
69219;BME280;56232;53.384;-2.732;2023-08-06T04:24:46;101189.02;;;15.32;42.84
69219;BME280;56232;53.384;-2.732;2023-08-06T04:27:13;101189.75;;;14.12;41.88
69219;BME280;56232;53.384;-2.732;2023-08-06T04:29:37;101190.06;;;13.95;41.89
69219;BME280;56232;53.384;-2.732;2023-08-06T04:32:05;101191.60;;;13.79;42.36
69219;BME280;56232;53.384;-2.732;2023-08-06T04:34:29;101193.26;;;13.63;42.24
69219;BME280;56232;53.384;-2.732;2023-08-06T04:36:54;101195.68;;;14.14;42.80
69219;BME280;56232;53.384;-2.732;2023-08-06T04:39:19;101198.20;;;13.71;41.71
69219;BME280;56232;53.384;-2.732;2023-08-06T04:41:45;101200.04;;;13.81;42.56
69219;BME280;56232;53.384;-2.732;2023-08-06T04:44:11;101204.78;;;13.99;42.96
69219;BME280;56232;53.384;-2.732;2023-08-06T04:46:36;101205.73;;;14.67;42.90
69219;BME280;56232;53.384;-2.732;2023-08-06T04:49:02;101203.77;;;15.32;42.77
69219;BME280;56232;53.384;-2.732;2023-08-06T04:51:27;101206.08;;;15.26;41.90
69219;BME280;56232;53.384;-2.732;2023-08-06T04:53:53;101206.07;;;15.25;42.29
69219;BME280;56232;53.384;-2.732;2023-08-06T04:56:19;101206.57;;;14.25;42.52
69219;BME280;56232;53.384;-2.732;2023-08-06T04:58:45;101207.16;;;14.44;42.59
69219;BME280;56232;53.384;-2.732;2023-08-06T05:01:10;101206.50;;;14.56;41.88
69219;BME280;56232;53.384;-2.732;2023-08-06T05:03:36;101208.18;;;14.67;42.16
69219;BME280;56232;53.384;-2.732;2023-08-06T05:06:01;101211.01;;;14.21;41.24
69219;BME280;56232;53.384;-2.732;2023-08-06T05:08:27;101211.41;;;14.96;42.24
69219;BME280;56232;53.384;-2.732;2023-08-06T05:10:53;101213.72;;;14.49;41.05
69219;BME280;56232;53.384;-2.732;2023-08-06T05:13:18;101213.79;;;15.72;41.50
69219;BME280;56232;53.384;-2.732;2023-08-06T05:15:44;101212.78;;;15.20;41.04
69219;BME280;56232;53.384;-2.732;2023-08-06T05:18:10;101216.50;;;14.61;40.87
69219;BME280;56232;53.384;-2.732;2023-08-06T05:20:36;101219.55;;;15.28;40.02
69219;BME280;56232;53.384;-2.732;2023-08-06T05:23:01;101222.17;;;14.81;41.62
69219;BME280;56232;53.384;-2.732;2023-08-06T05:25:26;101225.48;;;15.59;41.23
69219;BME280;56232;53.384;-2.732;2023-08-06T05:27:52;101224.62;;;15.70;40.06
69219;BME280;56232;53.384;-2.732;2023-08-06T05:30:18;101226.11;;;15.04;39.68
69219;BME280;56232;53.384;-2.732;2023-08-06T05:32:43;101229.68;;;15.66;40.62
69219;BME280;56232;53.384;-2.732;2023-08-06T05:35:09;101228.95;;;15.80;40.53
69219;BME280;56232;53.384;-2.732;2023-08-06T05:37:35;101230.26;;;15.31;40.73
69219;BME280;56232;53.384;-2.732;2023-08-06T05:40:00;101228.74;;;15.49;40.54
69219;BME280;56232;53.384;-2.732;2023-08-06T05:42:26;101233.23;;;16.14;40.43
69219;BME280;56232;53.384;-2.732;2023-08-06T05:44:51;101231.78;;;15.13;41.19
69219;BME280;56232;53.384;-2.732;2023-08-06T05:47:17;101232.71;;;15.82;41.60
69219;BME280;56232;53.384;-2.732;2023-08-06T05:49:43;101239.82;;;16.04;41.18
69219;BME280;56232;53.384;-2.732;2023-08-06T05:52:08;101244.87;;;15.77;41.80
69219;BME280;56232;53.384;-2.732;2023-08-06T05:54:34;101249.24;;;15.99;41.48
69219;BME280;56232;53.384;-2.732;2023-08-06T05:57:00;101251.85;;;16.70;41.70
69219;BME280;56232;53.384;-2.732;2023-08-06T05:59:25;101253.96;;;16.30;41.10
69219;BME280;56232;53.384;-2.732;2023-08-06T06:01:51;101256.09;;;16.26;41.13
69219;BME280;56232;53.384;-2.732;2023-08-06T06:04:17;101256.50;;;16.35;41.64
69219;BME280;56232;53.384;-2.732;2023-08-06T06:06:43;101255.97;;;16.51;41.27
69219;BME280;56232;53.384;-2.732;2023-08-06T06:09:08;101260.22;;;16.66;41.45
69219;BME280;56232;53.384;-2.732;2023-08-06T06:11:33;101257.14;;;16.13;39.68
69219;BME280;56232;53.384;-2.732;2023-08-06T06:13:59;101260.86;;;16.16;40.56
69219;BME280;56232;53.384;-2.732;2023-08-06T06:16:25;101262.19;;;16.84;40.63
69219;BME280;56232;53.384;-2.732;2023-08-06T06:18:50;101263.16;;;16.68;40.76
69219;BME280;56232;53.384;-2.732;2023-08-06T06:21:16;101269.44;;;17.55;40.60
69219;BME280;56232;53.384;-2.732;2023-08-06T06:23:43;101271.90;;;17.83;40.53
69219;BME280;56232;53.384;-2.732;2023-08-06T06:26:07;101274.25;;;17.03;39.39
69219;BME280;56232;53.384;-2.732;2023-08-06T06:28:33;101275.07;;;17.75;39.50
69219;BME280;56232;53.384;-2.732;2023-08-06T06:31:00;101277.35;;;17.26;39.61
69219;BME280;56232;53.384;-2.732;2023-08-06T06:33:24;101282.01;;;17.45;40.29
69219;BME280;56232;53.384;-2.732;2023-08-06T06:35:50;101279.57;;;17.63;40.16
69219;BME280;56232;53.384;-2.732;2023-08-06T06:38:15;101278.05;;;17.27;39.93
69219;BME280;56232;53.384;-2.732;2023-08-06T06:40:42;101281.01;;;17.94;40.07
69219;BME280;56232;53.384;-2.732;2023-08-06T06:43:07;101280.75;;;18.08;40.08
69219;BME280;56232;53.384;-2.732;2023-08-06T06:45:32;101282.78;;;18.15;39.74
69219;BME280;56232;53.384;-2.732;2023-08-06T06:47:57;101285.51;;;17.54;39.67
69219;BME280;56232;53.384;-2.732;2023-08-06T06:50:23;101290.60;;;17.92;38.54
69219;BME280;56232;53.384;-2.732;2023-08-06T06:53:03;101302.76;;;17.56;37.58
69219;BME280;56232;53.384;-2.732;2023-08-06T06:55:14;101305.04;;;17.13;37.49
69219;BME280;56232;53.384;-2.732;2023-08-06T06:57:40;101311.66;;;16.20;38.53
69219;BME280;56232;53.384;-2.732;2023-08-06T07:00:06;101296.85;;;15.75;40.22
69219;BME280;56232;53.384;-2.732;2023-08-06T07:02:31;101313.53;;;15.90;41.02
69219;BME280;56232;53.384;-2.732;2023-08-06T07:04:57;101309.11;;;15.56;40.26
69219;BME280;56232;53.384;-2.732;2023-08-06T07:07:22;101312.31;;;14.87;42.42
69219;BME280;56232;53.384;-2.732;2023-08-06T07:09:48;101314.26;;;14.69;43.36
69219;BME280;56232;53.384;-2.732;2023-08-06T07:12:14;101309.43;;;14.65;43.70
69219;BME280;56232;53.384;-2.732;2023-08-06T07:14:40;101313.24;;;14.74;43.86
69219;BME280;56232;53.384;-2.732;2023-08-06T07:17:05;101314.62;;;14.24;43.83
69219;BME280;56232;53.384;-2.732;2023-08-06T07:19:30;101315.94;;;14.89;44.00
69219;BME280;56232;53.384;-2.732;2023-08-06T07:21:56;101316.91;;;15.18;44.90
69219;BME280;56232;53.384;-2.732;2023-08-06T07:24:22;101317.01;;;14.51;45.20
69219;BME280;56232;53.384;-2.732;2023-08-06T07:26:47;101312.72;;;16.03;45.35
69219;BME280;56232;53.384;-2.732;2023-08-06T07:29:13;101315.25;;;15.38;45.42
69219;BME280;56232;53.384;-2.732;2023-08-06T07:31:39;101321.96;;;15.75;45.36
69219;BME280;56232;53.384;-2.732;2023-08-06T07:34:04;101322.92;;;16.06;45.51
69219;BME280;56232;53.384;-2.732;2023-08-06T07:36:30;101321.57;;;16.77;45.56
69219;BME280;56232;53.384;-2.732;2023-08-06T07:38:55;101319.04;;;16.53;45.26
69219;BME280;56232;53.384;-2.732;2023-08-06T07:41:21;101319.11;;;16.30;44.23
69219;BME280;56232;53.384;-2.732;2023-08-06T07:43:46;101321.92;;;16.66;44.31
69219;BME280;56232;53.384;-2.732;2023-08-06T07:46:12;101321.38;;;16.53;43.93
69219;BME280;56232;53.384;-2.732;2023-08-06T07:48:38;101321.92;;;16.64;44.01
69219;BME280;56232;53.384;-2.732;2023-08-06T07:51:03;101323.21;;;16.69;43.96
69219;BME280;56232;53.384;-2.732;2023-08-06T07:53:29;101326.25;;;15.90;44.49
69219;BME280;56232;53.384;-2.732;2023-08-06T07:55:54;101324.64;;;17.34;44.79
69219;BME280;56232;53.384;-2.732;2023-08-06T07:58:20;101323.07;;;17.33;44.47
69219;BME280;56232;53.384;-2.732;2023-08-06T08:00:46;101326.75;;;18.01;43.71
69219;BME280;56232;53.384;-2.732;2023-08-06T08:03:11;101314.75;;;21.64;42.97
69219;BME280;56232;53.384;-2.732;2023-08-06T08:05:37;101323.14;;;22.13;43.39
69219;BME280;56232;53.384;-2.732;2023-08-06T08:08:02;101326.62;;;21.39;42.48
69219;BME280;56232;53.384;-2.732;2023-08-06T08:10:28;101319.62;;;20.86;40.97
69219;BME280;56232;53.384;-2.732;2023-08-06T08:12:53;101314.77;;;20.02;41.68
69219;BME280;56232;53.384;-2.732;2023-08-06T08:15:19;101318.06;;;20.39;40.51
69219;BME280;56232;53.384;-2.732;2023-08-06T08:17:44;101323.36;;;21.14;40.96
69219;BME280;56232;53.384;-2.732;2023-08-06T08:20:10;101330.26;;;20.94;41.26
69219;BME280;56232;53.384;-2.732;2023-08-06T08:22:36;101325.96;;;20.97;40.95
69219;BME280;56232;53.384;-2.732;2023-08-06T08:25:01;101332.64;;;20.38;40.57
69219;BME280;56232;53.384;-2.732;2023-08-06T08:27:27;101331.40;;;19.83;40.56
69219;BME280;56232;53.384;-2.732;2023-08-06T08:29:52;101332.29;;;19.55;39.95
69219;BME280;56232;53.384;-2.732;2023-08-06T08:32:18;101327.68;;;22.26;38.62
69219;BME280;56232;53.384;-2.732;2023-08-06T08:34:44;101326.28;;;24.17;38.12
69219;BME280;56232;53.384;-2.732;2023-08-06T08:37:09;101324.79;;;23.96;37.03
69219;BME280;56232;53.384;-2.732;2023-08-06T08:39:34;101325.25;;;23.38;35.12
69219;BME280;56232;53.384;-2.732;2023-08-06T08:42:00;101325.36;;;22.01;35.09
69219;BME280;56232;53.384;-2.732;2023-08-06T08:44:26;101324.58;;;20.43;34.76
69219;BME280;56232;53.384;-2.732;2023-08-06T08:46:51;101329.27;;;19.45;36.26
69219;BME280;56232;53.384;-2.732;2023-08-06T08:49:17;101330.22;;;19.08;37.81
69219;BME280;56232;53.384;-2.732;2023-08-06T08:51:43;101341.40;;;18.54;37.95
69219;BME280;56232;53.384;-2.732;2023-08-06T08:54:08;101339.52;;;18.14;38.98
69219;BME280;56232;53.384;-2.732;2023-08-06T08:56:33;101344.00;;;18.60;39.90
69219;BME280;56232;53.384;-2.732;2023-08-06T08:58:59;101345.01;;;19.29;40.21
69219;BME280;56232;53.384;-2.732;2023-08-06T09:01:25;101345.66;;;18.86;40.40
69219;BME280;56232;53.384;-2.732;2023-08-06T09:03:50;101344.16;;;18.28;39.01
69219;BME280;56232;53.384;-2.732;2023-08-06T09:06:17;101349.05;;;18.05;38.92
69219;BME280;56232;53.384;-2.732;2023-08-06T09:08:47;101349.02;;;18.58;39.79
69219;BME280;56232;53.384;-2.732;2023-08-06T09:11:09;101355.81;;;17.96;39.97
69219;BME280;56232;53.384;-2.732;2023-08-06T09:13:32;101359.50;;;17.70;39.93
69219;BME280;56232;53.384;-2.732;2023-08-06T09:15:58;101368.00;;;18.59;39.11
69219;BME280;56232;53.384;-2.732;2023-08-06T09:18:27;101362.64;;;17.68;39.31
69219;BME280;56232;53.384;-2.732;2023-08-06T09:20:49;101362.55;;;17.60;39.93
69219;BME280;56232;53.384;-2.732;2023-08-06T09:23:15;101368.01;;;17.52;40.39
69219;BME280;56232;53.384;-2.732;2023-08-06T09:25:41;101369.44;;;17.59;39.34
69219;BME280;56232;53.384;-2.732;2023-08-06T09:28:06;101366.84;;;17.32;40.30
69219;BME280;56232;53.384;-2.732;2023-08-06T09:30:33;101363.66;;;17.11;40.30
69219;BME280;56232;53.384;-2.732;2023-08-06T09:32:57;101365.31;;;17.06;40.60
69219;BME280;56232;53.384;-2.732;2023-08-06T09:35:23;101365.79;;;17.35;40.89
69219;BME280;56232;53.384;-2.732;2023-08-06T09:37:48;101374.64;;;17.92;41.20
69219;BME280;56232;53.384;-2.732;2023-08-06T09:42:43;101373.71;;;19.12;40.02
69219;BME280;56232;53.384;-2.732;2023-08-06T09:45:06;101375.20;;;19.55;39.21
69219;BME280;56232;53.384;-2.732;2023-08-06T09:47:31;101375.07;;;18.88;39.93
69219;BME280;56232;53.384;-2.732;2023-08-06T09:49:56;101373.17;;;19.70;40.24
69219;BME280;56232;53.384;-2.732;2023-08-06T09:52:22;101376.96;;;20.79;40.95
69219;BME280;56232;53.384;-2.732;2023-08-06T09:54:48;101378.99;;;21.58;39.06
69219;BME280;56232;53.384;-2.732;2023-08-06T09:57:13;101380.92;;;21.35;37.74
69219;BME280;56232;53.384;-2.732;2023-08-06T09:59:40;101386.22;;;21.50;38.28
69219;BME280;56232;53.384;-2.732;2023-08-06T10:02:11;101389.10;;;20.67;38.08
69219;BME280;56232;53.384;-2.732;2023-08-06T10:04:30;101390.03;;;20.82;37.63
69219;BME280;56232;53.384;-2.732;2023-08-06T10:06:56;101391.57;;;20.56;39.11
69219;BME280;56232;53.384;-2.732;2023-08-06T10:09:21;101405.11;;;19.58;38.36
69219;BME280;56232;53.384;-2.732;2023-08-06T10:11:49;101404.06;;;19.00;38.75
69219;BME280;56232;53.384;-2.732;2023-08-06T10:14:15;101401.17;;;18.00;38.39
69219;BME280;56232;53.384;-2.732;2023-08-06T10:16:38;101412.73;;;18.36;38.74
69219;BME280;56232;53.384;-2.732;2023-08-06T10:19:04;101416.09;;;17.56;39.35
69219;BME280;56232;53.384;-2.732;2023-08-06T10:21:30;101409.16;;;17.16;39.86
69219;BME280;56232;53.384;-2.732;2023-08-06T10:23:54;101411.80;;;15.92;40.63
69219;BME280;56232;53.384;-2.732;2023-08-06T10:26:20;101411.04;;;16.08;41.07
69219;BME280;56232;53.384;-2.732;2023-08-06T10:28:46;101410.51;;;16.28;41.74
69219;BME280;56232;53.384;-2.732;2023-08-06T10:31:11;101414.70;;;16.65;42.40
69219;BME280;56232;53.384;-2.732;2023-08-06T10:33:41;101417.13;;;16.91;42.53
69219;BME280;56232;53.384;-2.732;2023-08-06T10:36:03;101419.17;;;16.60;42.25
69219;BME280;56232;53.384;-2.732;2023-08-06T10:38:28;101416.04;;;17.13;41.91
69219;BME280;56232;53.384;-2.732;2023-08-06T10:41:01;101413.74;;;16.38;41.15
69219;BME280;56232;53.384;-2.732;2023-08-06T10:43:25;101415.42;;;16.11;42.10
69219;BME280;56232;53.384;-2.732;2023-08-06T10:45:49;101419.34;;;15.79;41.39
69219;BME280;56232;53.384;-2.732;2023-08-06T10:48:10;101421.70;;;16.60;41.90
69219;BME280;56232;53.384;-2.732;2023-08-06T10:50:35;101419.51;;;17.88;40.90
69219;BME280;56232;53.384;-2.732;2023-08-06T10:53:04;101420.00;;;17.74;40.33
69219;BME280;56232;53.384;-2.732;2023-08-06T10:55:29;101421.54;;;19.28;40.17
69219;BME280;56232;53.384;-2.732;2023-08-06T10:57:52;101415.96;;;18.97;38.81
69219;BME280;56232;53.384;-2.732;2023-08-06T11:00:17;101414.41;;;18.96;39.24
69219;BME280;56232;53.384;-2.732;2023-08-06T11:02:44;101415.59;;;19.81;38.66
69219;BME280;56232;53.384;-2.732;2023-08-06T11:05:09;101416.23;;;19.59;38.52
69219;BME280;56232;53.384;-2.732;2023-08-06T11:07:34;101411.34;;;19.68;39.79
69219;BME280;56232;53.384;-2.732;2023-08-06T11:10:02;101411.80;;;19.67;38.98
69219;BME280;56232;53.384;-2.732;2023-08-06T11:12:25;101409.70;;;19.19;37.92
69219;BME280;56232;53.384;-2.732;2023-08-06T11:14:50;101418.93;;;18.99;38.34
69219;BME280;56232;53.384;-2.732;2023-08-06T11:17:16;101423.93;;;18.85;38.67
69219;BME280;56232;53.384;-2.732;2023-08-06T11:19:44;101423.43;;;18.90;38.43
69219;BME280;56232;53.384;-2.732;2023-08-06T11:22:07;101425.22;;;18.73;38.79
69219;BME280;56232;53.384;-2.732;2023-08-06T11:24:33;101435.00;;;19.26;38.56
69219;BME280;56232;53.384;-2.732;2023-08-06T11:26:58;101434.46;;;19.22;38.49
69219;BME280;56232;53.384;-2.732;2023-08-06T11:29:24;101434.70;;;19.43;38.37
69219;BME280;56232;53.384;-2.732;2023-08-06T11:31:49;101434.43;;;19.09;39.51
69219;BME280;56232;53.384;-2.732;2023-08-06T11:34:15;101434.34;;;19.51;38.48
69219;BME280;56232;53.384;-2.732;2023-08-06T11:36:41;101428.38;;;20.08;37.82
69219;BME280;56232;53.384;-2.732;2023-08-06T11:39:06;101425.16;;;20.38;38.02
69219;BME280;56232;53.384;-2.732;2023-08-06T11:41:31;101423.40;;;20.65;37.62
69219;BME280;56232;53.384;-2.732;2023-08-06T11:43:57;101421.38;;;20.41;38.16
69219;BME280;56232;53.384;-2.732;2023-08-06T11:46:22;101423.96;;;21.28;36.63
69219;BME280;56232;53.384;-2.732;2023-08-06T11:48:51;101422.58;;;21.60;36.61
69219;BME280;56232;53.384;-2.732;2023-08-06T11:51:13;101421.99;;;20.89;37.23
69219;BME280;56232;53.384;-2.732;2023-08-06T11:53:39;101425.44;;;20.54;37.52
69219;BME280;56232;53.384;-2.732;2023-08-06T11:56:04;101424.75;;;20.70;37.22
69219;BME280;56232;53.384;-2.732;2023-08-06T11:58:30;101425.42;;;20.92;36.85
69219;BME280;56232;53.384;-2.732;2023-08-06T12:00:56;101430.15;;;21.30;36.88
69219;BME280;56232;53.384;-2.732;2023-08-06T12:03:21;101426.19;;;21.70;36.34
69219;BME280;56232;53.384;-2.732;2023-08-06T12:05:47;101428.16;;;21.57;37.26
69219;BME280;56232;53.384;-2.732;2023-08-06T12:08:12;101431.97;;;20.95;36.62
69219;BME280;56232;53.384;-2.732;2023-08-06T12:10:38;101432.63;;;20.13;37.50
69219;BME280;56232;53.384;-2.732;2023-08-06T12:13:03;101432.69;;;20.66;37.34
69219;BME280;56232;53.384;-2.732;2023-08-06T12:15:30;101431.32;;;20.91;37.31
69219;BME280;56232;53.384;-2.732;2023-08-06T12:17:54;101431.14;;;20.85;37.97
69219;BME280;56232;53.384;-2.732;2023-08-06T12:20:20;101431.76;;;20.67;37.69
69219;BME280;56232;53.384;-2.732;2023-08-06T12:22:46;101435.80;;;20.48;38.04
69219;BME280;56232;53.384;-2.732;2023-08-06T12:25:11;101439.56;;;20.50;38.17
69219;BME280;56232;53.384;-2.732;2023-08-06T12:27:38;101443.04;;;20.71;37.82
69219;BME280;56232;53.384;-2.732;2023-08-06T12:30:03;101446.66;;;21.44;38.03
69219;BME280;56232;53.384;-2.732;2023-08-06T12:32:28;101446.81;;;20.67;38.01